Time;durP1;ratioP1;P1;durP2;ratioP2;P2;SDS_P1;SDS_P2;PMS_P1;PMS_P2;Temp;Humidity;BMP_temperature;BMP_pressure;BME280_temperature;BME280_humidity;BME280_pressure;Samples;Min_cycle;Max_cycle;Signal;HPM_P1;HPM_P2
2023/08/16 00:01:13;;;;;;;5.82;3.70;;;;;;;23.83;74.79;100167.00;6127891;23;20092;-94
2023/08/16 00:03:41;;;;;;;8.27;4.32;;;;;;;23.82;74.57;100162.66;6127596;23;20079;-94
2023/08/16 00:06:12;;;;;;;6.30;3.80;;;;;;;23.80;74.82;100157.41;6125923;23;20028;-94
2023/08/16 00:08:40;;;;;;;8.02;3.55;;;;;;;23.82;74.83;100152.63;6126208;23;20021;-94
2023/08/16 00:11:07;;;;;;;7.57;4.13;;;;;;;23.80;74.84;100146.56;6101644;23;20076;-94
2023/08/16 00:13:34;;;;;;;6.50;3.63;;;;;;;23.79;75.23;100152.22;6102966;23;20037;-94
2023/08/16 00:16:02;;;;;;;7.30;3.75;;;;;;;23.83;75.18;100157.00;6126368;23;20027;-94
2023/08/16 00:18:29;;;;;;;4.90;3.47;;;;;;;23.83;75.18;100154.28;6126271;23;20319;-95
2023/08/16 00:20:58;;;;;;;5.28;3.92;;;;;;;23.83;75.21;100153.44;6102015;23;20033;-94
2023/08/16 00:23:26;;;;;;;9.05;3.78;;;;;;;23.81;75.12;100145.56;6103033;23;20033;-94
2023/08/16 00:25:53;;;;;;;7.93;3.90;;;;;;;23.81;75.22;100132.00;6127269;23;20073;-94
2023/08/16 00:28:19;;;;;;;8.73;4.43;;;;;;;23.82;75.68;100138.25;6151141;23;20025;-94
2023/08/16 00:30:56;;;;;;;7.28;4.07;;;;;;;23.73;75.10;100129.50;6102587;23;20033;-93
2023/08/16 00:33:23;;;;;;;4.78;4.00;;;;;;;23.74;75.43;100133.06;6127106;23;20025;-94
2023/08/16 00:35:51;;;;;;;5.13;4.00;;;;;;;23.74;75.53;100139.31;6102647;23;20039;-94
2023/08/16 00:38:18;;;;;;;6.78;3.92;;;;;;;23.75;75.71;100145.56;6102381;23;20099;-94
2023/08/16 00:40:49;;;;;;;8.30;3.47;;;;;;;23.67;75.69;100140.34;6126452;23;20418;-94
2023/08/16 00:43:17;;;;;;;8.50;4.03;;;;;;;23.69;75.88;100135.56;6102219;23;20029;-94
2023/08/16 00:45:45;;;;;;;9.23;4.50;;;;;;;23.67;75.84;100124.91;6125347;23;20060;-95
2023/08/16 00:48:13;;;;;;;5.93;3.78;;;;;;;23.65;75.85;100113.44;6101668;23;20057;-95
2023/08/16 00:50:40;;;;;;;9.35;4.47;;;;;;;23.62;75.98;100101.16;6126600;23;20035;-94
2023/08/16 00:53:07;;;;;;;6.18;3.90;;;;;;;23.65;76.00;100107.19;6126332;23;20403;-94
2023/08/16 00:55:33;;;;;;;10.32;4.47;;;;;;;23.64;76.04;100105.53;6101643;23;20080;-94
2023/08/16 00:58:01;;;;;;;8.00;4.22;;;;;;;23.62;75.25;100103.03;6101951;23;20493;-94
2023/08/16 01:00:28;;;;;;;6.60;3.88;;;;;;;23.60;74.87;100105.13;6101748;23;20052;-94
2023/08/16 01:02:56;;;;;;;7.57;4.50;;;;;;;23.48;75.33;100101.41;6126166;23;20461;-94
2023/08/16 01:05:24;;;;;;;9.23;4.50;;;;;;;23.48;75.88;100117.66;6102957;23;20079;-93
2023/08/16 01:07:51;;;;;;;7.95;4.40;;;;;;;23.49;76.09;100109.34;6102008;23;20025;-94
2023/08/16 01:10:21;;;;;;;7.40;4.32;;;;;;;23.51;76.61;100118.09;6125128;23;20096;-93
2023/08/16 01:12:55;;;;;;;5.78;4.00;;;;;;;23.49;76.65;100113.94;6102200;23;20021;-93
2023/08/16 01:15:29;;;;;;;7.60;4.05;;;;;;;23.55;76.60;100113.06;6101667;23;20329;-93
2023/08/16 01:17:56;;;;;;;6.43;3.72;;;;;;;23.51;76.68;100100.97;6102254;23;20021;-94
2023/08/16 01:20:25;;;;;;;6.07;3.85;;;;;;;23.51;76.88;100100.97;6102005;23;20017;-94
2023/08/16 01:23:04;;;;;;;5.53;4.22;;;;;;;23.52;76.68;100099.94;6102103;23;20025;-94
2023/08/16 01:25:47;;;;;;;6.05;3.80;;;;;;;23.40;77.21;100103.31;6127764;23;20075;-94
2023/08/16 01:28:14;;;;;;;5.05;3.70;;;;;;;23.44;77.05;100097.47;6103555;23;20040;-93
2023/08/16 01:30:42;;;;;;;4.97;3.35;;;;;;;23.43;76.91;100079.53;6103570;23;20095;-94
2023/08/16 01:33:09;;;;;;;10.65;4.40;;;;;;;23.44;76.74;100070.38;6152371;23;20029;-95
2023/08/16 01:35:37;;;;;;;6.93;4.05;;;;;;;23.45;76.65;100067.44;6103059;23;20020;-93
2023/08/16 01:38:05;;;;;;;7.55;4.18;;;;;;;23.47;76.69;100062.63;6103198;23;20041;-93
2023/08/16 01:40:38;;;;;;;4.25;3.55;;;;;;;23.43;76.92;100065.97;6102885;23;20426;-94
2023/08/16 01:43:09;;;;;;;5.22;3.97;;;;;;;23.47;76.75;100059.94;6103878;23;20384;-94
2023/08/16 01:45:36;;;;;;;6.13;3.95;;;;;;;23.43;76.83;100053.25;6103336;23;20075;-93
2023/08/16 01:48:04;;;;;;;9.20;3.70;;;;;;;23.41;76.84;100071.63;6102575;23;20025;-94
2023/08/16 01:50:31;;;;;;;8.63;3.70;;;;;;;23.39;76.38;100065.59;6127599;23;20028;-93
2023/08/16 01:52:58;;;;;;;5.00;3.85;;;;;;;23.40;76.36;100059.94;6126787;23;20029;-94
2023/08/16 01:55:25;;;;;;;6.78;4.05;;;;;;;23.38;76.39;100062.06;6102604;23;20505;-94
2023/08/16 01:57:52;;;;;;;4.85;3.78;;;;;;;23.37;76.58;100065.78;6152628;23;20075;-94
2023/08/16 02:00:19;;;;;;;8.23;3.50;;;;;;;23.35;77.01;100067.06;6101587;23;20024;-94
2023/08/16 02:02:46;;;;;;;4.63;4.00;;;;;;;23.37;77.08;100068.50;6127039;23;20017;-95
2023/08/16 02:05:13;;;;;;;5.65;3.95;;;;;;;23.33;77.50;100072.72;6128366;23;20088;-95
2023/08/16 02:07:40;;;;;;;7.88;4.15;;;;;;;23.34;77.11;100068.94;6127675;23;20099;-93
2023/08/16 02:10:07;;;;;;;7.57;4.00;;;;;;;23.31;77.17;100071.25;6127044;23;20027;-94
2023/08/16 02:12:34;;;;;;;5.07;4.25;;;;;;;23.30;77.39;100083.94;6103872;23;20083;-94
2023/08/16 02:15:02;;;;;;;6.57;4.43;;;;;;;23.31;76.70;100077.50;6102290;23;20429;-94
2023/08/16 02:17:30;;;;;;;5.18;4.13;;;;;;;23.32;76.46;100078.31;6151808;23;20040;-94
2023/08/16 02:19:57;;;;;;;7.35;4.30;;;;;;;23.25;76.58;100080.22;6102443;23;20021;-94
2023/08/16 02:22:25;;;;;;;6.30;4.55;;;;;;;23.23;76.66;100079.59;6102985;23;20484;-93
2023/08/16 02:25:07;;;;;;;7.10;4.97;;;;;;;23.18;76.68;100072.13;6133084;23;20397;-93
2023/08/16 02:27:34;;;;;;;8.32;4.82;;;;;;;23.20;76.66;100061.88;6102944;23;20767;-93
2023/08/16 02:30:01;;;;;;;7.40;4.03;;;;;;;23.19;77.15;100068.38;6126757;23;20021;-93
2023/08/16 02:32:29;;;;;;;6.10;4.32;;;;;;;23.15;76.79;100058.97;6127256;23;20024;-94
2023/08/16 02:34:55;;;;;;;11.60;3.63;;;;;;;23.12;77.03;100060.25;6150761;23;20025;-94
2023/08/16 02:37:22;;;;;;;5.13;3.90;;;;;;;23.17;77.36;100062.31;6127274;23;20024;-94
2023/08/16 02:39:50;;;;;;;6.72;4.22;;;;;;;23.16;77.16;100060.66;6103360;23;20457;-94
2023/08/16 02:42:17;;;;;;;8.35;3.80;;;;;;;23.12;76.73;100052.13;6101908;23;20031;-93
2023/08/16 02:44:44;;;;;;;8.18;3.88;;;;;;;23.13;76.65;100064.63;6101759;23;20076;-93
2023/08/16 02:47:10;;;;;;;5.82;4.43;;;;;;;23.09;76.65;100060.66;6126864;23;20021;-94
2023/08/16 02:49:37;;;;;;;5.72;3.92;;;;;;;23.05;76.68;100066.72;6102241;23;20346;-94
2023/08/16 02:52:04;;;;;;;7.07;4.53;;;;;;;23.08;77.14;100069.03;6126346;23;20056;-94
2023/08/16 02:54:31;;;;;;;9.30;4.50;;;;;;;23.04;77.00;100065.88;6127397;23;20019;-94
2023/08/16 02:56:58;;;;;;;5.15;3.83;;;;;;;23.05;77.08;100066.72;6126487;23;20391;-94
2023/08/16 02:59:25;;;;;;;6.28;4.03;;;;;;;23.06;77.11;100069.22;6127801;23;20372;-94
2023/08/16 03:01:52;;;;;;;6.80;4.20;;;;;;;23.00;77.08;100059.25;6126677;23;20096;-94
2023/08/16 03:04:18;;;;;;;5.90;4.32;;;;;;;23.02;77.13;100073.38;6126076;23;20346;-94
2023/08/16 03:06:45;;;;;;;8.95;4.43;;;;;;;22.97;77.47;100062.34;6127471;23;20039;-94
2023/08/16 03:09:13;;;;;;;5.55;4.18;;;;;;;23.02;77.45;100070.69;6126798;23;20457;-94
2023/08/16 03:11:39;;;;;;;6.07;4.10;;;;;;;23.00;77.44;100070.09;6101967;23;20025;-95
2023/08/16 03:14:08;;;;;;;9.35;4.30;;;;;;;23.01;77.60;100077.16;6103143;23;20390;-94
2023/08/16 03:16:35;;;;;;;7.18;4.40;;;;;;;23.00;77.67;100074.66;6101896;23;20116;-94
2023/08/16 03:19:02;;;;;;;7.53;3.85;;;;;;;22.98;77.78;100080.28;6124582;23;20020;-93
2023/08/16 03:21:28;;;;;;;6.03;4.18;;;;;;;22.96;77.84;100080.47;6125370;23;20464;-93
2023/08/16 03:23:55;;;;;;;6.45;4.47;;;;;;;22.93;77.80;100075.47;6119586;23;20029;-93
2023/08/16 03:26:22;;;;;;;7.20;4.18;;;;;;;22.92;77.87;100081.09;6070011;23;20051;-92
2023/08/16 03:28:50;;;;;;;7.28;4.18;;;;;;;22.90;77.92;100088.59;6119705;23;20595;-93
2023/08/16 03:31:18;;;;;;;8.00;3.90;;;;;;;22.93;77.53;100099.00;6096525;23;20025;-94
2023/08/16 03:33:45;;;;;;;7.07;4.28;;;;;;;22.89;77.62;100092.34;6096093;23;20040;-94
2023/08/16 03:36:12;;;;;;;7.95;4.03;;;;;;;22.88;77.39;100101.53;6096124;23;20021;-95
2023/08/16 03:38:42;;;;;;;8.48;3.75;;;;;;;22.82;77.30;100099.63;6072917;23;20017;-93
2023/08/16 03:41:10;;;;;;;6.97;4.00;;;;;;;22.86;77.54;100115.25;6072280;23;20053;-94
2023/08/16 03:43:37;;;;;;;5.50;3.95;;;;;;;22.87;77.74;100122.34;6095780;23;20034;-94
2023/08/16 03:46:04;;;;;;;4.82;3.67;;;;;;;22.87;77.87;100124.22;6071225;23;20116;-94
2023/08/16 03:48:32;;;;;;;6.35;4.20;;;;;;;22.84;78.16;100130.88;6072256;23;20438;-95
2023/08/16 03:50:59;;;;;;;4.30;3.90;;;;;;;22.85;78.12;100135.25;6072091;23;20030;-92
2023/08/16 03:53:26;;;;;;;5.70;3.85;;;;;;;22.84;78.24;100143.59;6070137;23;20029;-93
2023/08/16 03:55:57;;;;;;;6.68;4.65;;;;;;;22.86;78.22;100144.22;6070464;23;20017;-90
2023/08/16 03:58:24;;;;;;;7.45;4.05;;;;;;;22.87;78.22;100143.16;6118576;23;20072;-91
2023/08/16 04:00:52;;;;;;;10.68;4.25;;;;;;;22.85;78.20;100139.84;6094165;23;20025;-92
2023/08/16 04:03:19;;;;;;;7.57;4.75;;;;;;;22.82;78.19;100137.53;6093101;23;20022;-92
2023/08/16 04:05:46;;;;;;;6.03;3.80;;;;;;;22.84;77.99;100144.41;6094832;23;20021;-93
2023/08/16 04:08:13;;;;;;;8.40;4.32;;;;;;;22.82;77.23;100138.41;6094679;23;20045;-92
2023/08/16 04:10:40;;;;;;;6.38;3.92;;;;;;;22.80;77.57;100145.88;6095046;23;20017;-91
2023/08/16 04:13:08;;;;;;;7.47;3.63;;;;;;;22.76;77.93;100140.03;6095762;23;20029;-90
2023/08/16 04:15:35;;;;;;;8.23;4.43;;;;;;;22.76;78.05;100152.75;6094970;23;20022;-91
2023/08/16 04:18:03;;;;;;;5.82;4.22;;;;;;;22.80;77.88;100164.00;6119594;23;20076;-92
2023/08/16 04:20:30;;;;;;;9.23;4.00;;;;;;;22.78;77.78;100166.09;6095860;23;20088;-91
2023/08/16 04:22:56;;;;;;;4.28;3.40;;;;;;;22.76;77.97;100166.28;6133402;23;20357;-91
2023/08/16 04:25:24;;;;;;;4.55;4.00;;;;;;;22.78;78.21;100171.50;6100644;23;20025;-91
2023/08/16 04:27:51;;;;;;;8.50;3.80;;;;;;;22.79;78.21;100175.88;6125429;23;20021;-91
2023/08/16 04:30:18;;;;;;;6.85;4.20;;;;;;;22.82;78.07;100187.13;6141566;23;20020;-91
2023/08/16 04:32:45;;;;;;;8.23;5.50;;;;;;;22.82;78.00;100173.59;6123567;23;20092;-92
2023/08/16 04:35:12;;;;;;;5.18;4.00;;;;;;;22.82;78.08;100176.31;6124845;23;20024;-90
2023/08/16 04:37:39;;;;;;;5.30;3.75;;;;;;;22.79;77.98;100167.75;6149938;23;20028;-90
2023/08/16 04:40:06;;;;;;;7.93;4.10;;;;;;;22.80;77.82;100164.00;6124587;23;20017;-90
2023/08/16 04:42:34;;;;;;;4.22;3.80;;;;;;;22.78;77.89;100149.84;6119938;23;20021;-91
2023/08/16 04:45:03;;;;;;;5.78;3.95;;;;;;;22.81;77.81;100162.97;6113267;23;20021;-91
2023/08/16 04:47:31;;;;;;;7.05;3.55;;;;;;;22.81;78.17;100155.66;6101537;23;20441;-90
2023/08/16 04:49:59;;;;;;;9.30;3.80;;;;;;;22.77;78.15;100154.44;6125112;23;20024;-90
2023/08/16 04:52:27;;;;;;;4.57;3.42;;;;;;;22.81;78.24;100150.25;6102028;23;20035;-91
2023/08/16 04:54:54;;;;;;;4.10;3.75;;;;;;;22.82;78.28;100140.25;6126118;23;20021;-91
2023/08/16 04:57:22;;;;;;;5.10;4.00;;;;;;;22.84;78.09;100139.00;6126471;23;20023;-92
2023/08/16 04:59:52;;;;;;;6.18;4.13;;;;;;;22.86;78.18;100134.22;6127424;23;20025;-90
2023/08/16 05:02:19;;;;;;;6.82;4.00;;;;;;;22.88;78.10;100124.00;6151432;23;20021;-92
2023/08/16 05:04:47;;;;;;;5.68;3.80;;;;;;;22.90;78.32;100127.34;6152784;23;20090;-91
2023/08/16 05:07:14;;;;;;;6.13;3.80;;;;;;;22.91;78.37;100115.47;6126454;23;20059;-90
2023/08/16 05:09:41;;;;;;;6.07;3.85;;;;;;;22.95;78.59;100116.72;6152023;23;20071;-90
2023/08/16 05:12:08;;;;;;;7.25;3.72;;;;;;;23.00;78.04;100115.28;6127596;23;20091;-91
2023/08/16 05:14:35;;;;;;;4.43;3.50;;;;;;;23.05;78.34;100116.31;6151993;23;20021;-91
2023/08/16 05:17:02;;;;;;;6.55;3.42;;;;;;;23.11;77.55;100120.88;6176126;23;20033;-91
2023/08/16 05:19:29;;;;;;;5.40;3.70;;;;;;;23.12;77.25;100110.88;6127438;23;20017;-91
2023/08/16 05:21:56;;;;;;;5.90;3.67;;;;;;;23.10;76.73;100100.28;6151406;23;20017;-91
2023/08/16 05:24:23;;;;;;;6.95;3.88;;;;;;;23.12;77.11;100114.41;6126881;23;20044;-91
2023/08/16 05:26:49;;;;;;;5.57;3.85;;;;;;;23.14;77.91;100122.34;6151495;23;20020;-88
2023/08/16 05:29:16;;;;;;;7.22;4.30;;;;;;;23.09;77.80;100104.00;6102735;23;20416;-91
2023/08/16 05:31:43;;;;;;;5.75;3.80;;;;;;;23.14;77.78;100106.09;6127880;23;20024;-91
2023/08/16 05:34:10;;;;;;;8.50;3.60;;;;;;;23.14;77.79;100116.94;6126210;23;20021;-91
2023/08/16 05:36:47;;;;;;;3.75;3.22;;;;;;;23.12;77.43;100116.28;6126628;23;20017;-91
2023/08/16 05:39:14;;;;;;;4.80;3.58;;;;;;;23.10;77.03;100121.94;6126639;23;20017;-92
2023/08/16 05:41:41;;;;;;;6.20;3.28;;;;;;;23.16;77.15;100120.25;6102843;23;20537;-91
2023/08/16 05:44:08;;;;;;;5.78;3.65;;;;;;;23.17;77.02;100124.63;6126965;23;20072;-92
2023/08/16 05:46:35;;;;;;;7.53;3.42;;;;;;;23.19;77.27;100145.03;6127487;23;20025;-91
2023/08/16 05:49:02;;;;;;;4.47;3.50;;;;;;;23.18;76.83;100147.97;6151146;23;20021;-91
2023/08/16 05:51:29;;;;;;;5.18;3.50;;;;;;;23.26;76.38;100158.59;6150979;23;20430;-92
2023/08/16 05:53:56;;;;;;;6.50;4.18;;;;;;;23.27;76.55;100157.53;6127429;23;20049;-91
2023/08/16 05:56:22;;;;;;;4.03;3.63;;;;;;;23.28;76.26;100152.94;6151224;23;20025;-92
2023/08/16 05:58:49;;;;;;;5.38;3.60;;;;;;;23.33;76.03;100161.28;6126582;23;20499;-91
2023/08/16 06:01:16;;;;;;;6.20;3.75;;;;;;;23.33;76.07;100180.25;6127104;23;20017;-91
2023/08/16 06:03:43;;;;;;;4.45;3.80;;;;;;;23.33;76.18;100185.66;6126972;23;20091;-88
2023/08/16 06:06:10;;;;;;;5.03;4.20;;;;;;;23.29;76.62;100176.31;6126776;23;20105;-89
2023/08/16 06:08:37;;;;;;;5.15;3.80;;;;;;;23.27;76.52;100176.50;6151368;23;20453;-92
2023/08/16 06:11:04;;;;;;;6.75;4.30;;;;;;;23.32;76.13;100175.88;6151639;23;20025;-91
2023/08/16 06:13:31;;;;;;;5.65;4.32;;;;;;;23.29;76.52;100176.31;6128130;23;20024;-91
2023/08/16 06:15:58;;;;;;;7.90;4.20;;;;;;;23.24;76.35;100165.25;6150778;23;20029;-91
2023/08/16 06:18:25;;;;;;;5.20;3.72;;;;;;;23.26;76.36;100165.91;6151611;23;20017;-91
2023/08/16 06:20:51;;;;;;;5.75;3.92;;;;;;;23.25;76.86;100161.50;6128064;23;20017;-91
2023/08/16 06:23:18;;;;;;;6.18;4.03;;;;;;;23.23;77.09;100163.56;6101895;23;20033;-92
2023/08/16 06:25:45;;;;;;;6.68;4.10;;;;;;;23.24;77.19;100167.97;6126726;23;20072;-91
2023/08/16 06:28:12;;;;;;;5.10;4.30;;;;;;;23.24;76.80;100167.97;6127155;23;20084;-89
2023/08/16 06:30:39;;;;;;;6.30;3.83;;;;;;;23.23;76.93;100164.44;6126072;23;20032;-89
2023/08/16 06:33:06;;;;;;;6.20;4.47;;;;;;;23.26;77.48;100166.72;6102887;23;20033;-89
2023/08/16 06:35:32;;;;;;;8.18;4.85;;;;;;;23.28;76.65;100167.34;6151952;23;20088;-90
2023/08/16 06:38:01;;;;;;;6.95;3.63;;;;;;;23.25;76.74;100159.63;6126287;23;20024;-90
2023/08/16 06:40:28;;;;;;;6.57;3.80;;;;;;;23.28;77.06;100159.22;6127207;23;20025;-90
2023/08/16 06:42:55;;;;;;;8.07;4.43;;;;;;;23.27;76.76;100154.81;6102131;23;20040;-89
2023/08/16 06:45:22;;;;;;;4.97;4.28;;;;;;;23.27;77.16;100151.28;6150537;23;20025;-90
2023/08/16 06:47:48;;;;;;;4.82;4.30;;;;;;;23.30;77.25;100153.56;6102804;23;20029;-90
2023/08/16 06:50:15;;;;;;;5.85;4.65;;;;;;;23.30;77.12;100151.69;6101651;23;20091;-90
2023/08/16 06:52:42;;;;;;;7.82;4.35;;;;;;;23.33;77.02;100153.13;6126279;23;20044;-90
2023/08/16 06:55:09;;;;;;;8.35;4.45;;;;;;;23.37;77.27;100149.81;6102100;23;20017;-91
2023/08/16 06:57:36;;;;;;;8.05;4.65;;;;;;;23.40;77.25;100148.53;6150710;23;20029;-89
2023/08/16 07:00:04;;;;;;;7.32;4.85;;;;;;;23.45;77.26;100139.78;6150705;23;20072;-90
2023/08/16 07:02:31;;;;;;;6.88;4.25;;;;;;;23.43;76.92;100145.41;6101659;23;20119;-90
2023/08/16 07:04:58;;;;;;;6.20;4.63;;;;;;;23.46;77.12;100149.56;6101983;23;20044;-90
2023/08/16 07:07:25;;;;;;;7.05;4.93;;;;;;;23.44;77.36;100151.69;6126543;23;20033;-91
2023/08/16 07:09:52;;;;;;;6.07;4.68;;;;;;;23.48;77.53;100152.91;6102007;23;20016;-89
2023/08/16 07:12:19;;;;;;;6.97;4.47;;;;;;;23.51;77.64;100149.75;6125615;23;20033;-90
2023/08/16 07:14:48;;;;;;;6.35;4.80;;;;;;;23.53;77.60;100159.34;6150742;23;20445;-90
2023/08/16 07:17:15;;;;;;;7.78;4.30;;;;;;;23.58;77.63;100159.56;6126312;23;20016;-90
2023/08/16 07:19:42;;;;;;;6.40;4.57;;;;;;;23.63;77.87;100158.91;6175449;23;20452;-90
2023/08/16 07:22:09;;;;;;;7.30;5.35;;;;;;;23.67;77.95;100151.19;6124896;23;20087;-90
2023/08/16 07:24:36;;;;;;;6.57;5.13;;;;;;;23.67;78.09;100159.34;6126439;23;20450;-90
2023/08/16 07:27:03;;;;;;;8.20;4.70;;;;;;;23.71;77.70;100153.28;6125894;23;20051;-90
2023/08/16 07:29:30;;;;;;;4.72;4.25;;;;;;;23.72;77.48;100154.09;6150605;23;20083;-91
2023/08/16 07:31:57;;;;;;;8.82;4.93;;;;;;;23.70;77.73;100154.31;6101924;23;20319;-91
2023/08/16 07:34:24;;;;;;;7.45;5.18;;;;;;;23.75;77.64;100161.84;6125583;23;20091;-90
2023/08/16 07:36:50;;;;;;;6.50;4.32;;;;;;;23.79;77.88;100165.78;6126070;23;20099;-90
2023/08/16 07:39:17;;;;;;;5.88;4.68;;;;;;;23.82;78.10;100170.78;6126145;23;20045;-91
2023/08/16 07:41:44;;;;;;;8.82;4.63;;;;;;;23.78;77.82;100169.53;6125723;23;20421;-90
2023/08/16 07:44:11;;;;;;;10.45;5.32;;;;;;;23.77;78.06;100167.88;6125410;23;20029;-91
2023/08/16 07:46:38;;;;;;;8.15;4.93;;;;;;;23.79;78.15;100173.94;6126042;23;20108;-90
2023/08/16 07:49:05;;;;;;;7.25;4.57;;;;;;;23.77;78.06;100168.72;6125463;23;20345;-91
2023/08/16 07:51:32;;;;;;;7.18;4.78;;;;;;;23.80;78.74;100172.88;6150256;23;20028;-91
2023/08/16 07:53:59;;;;;;;8.93;5.45;;;;;;;23.81;78.69;100175.38;6125380;23;20032;-90
2023/08/16 07:56:26;;;;;;;6.20;5.07;;;;;;;23.76;79.26;100180.63;6101377;23;20454;-91
2023/08/16 07:58:53;;;;;;;6.53;4.97;;;;;;;23.82;79.03;100177.03;6125365;23;20422;-90
2023/08/16 08:01:19;;;;;;;6.53;5.20;;;;;;;23.85;79.48;100172.22;6126127;23;20032;-91
2023/08/16 08:03:46;;;;;;;6.22;4.70;;;;;;;23.88;79.40;100174.50;6125432;23;20047;-90
2023/08/16 08:06:13;;;;;;;10.18;5.30;;;;;;;23.89;79.17;100170.72;6149505;23;20356;-91
2023/08/16 08:08:40;;;;;;;6.55;4.88;;;;;;;23.85;79.40;100159.50;6125878;23;20017;-91
2023/08/16 08:11:07;;;;;;;9.75;5.07;;;;;;;23.89;79.40;100173.44;6100773;23;20044;-90
2023/08/16 08:13:34;;;;;;;5.45;4.38;;;;;;;23.94;79.38;100170.94;6125794;23;20032;-91
2023/08/16 08:16:01;;;;;;;6.03;4.45;;;;;;;23.95;79.04;100173.44;6100704;23;20021;-90
2023/08/16 08:18:28;;;;;;;7.32;4.18;;;;;;;24.00;79.64;100179.03;6125348;23;20021;-90
2023/08/16 08:20:55;;;;;;;6.57;4.47;;;;;;;24.01;79.06;100177.16;6150092;23;20024;-91
2023/08/16 08:23:22;;;;;;;6.55;5.03;;;;;;;24.05;79.36;100179.22;6124763;23;20341;-91
2023/08/16 08:25:49;;;;;;;8.45;5.10;;;;;;;24.07;79.56;100173.59;6125936;23;20025;-91
2023/08/16 08:28:17;;;;;;;6.97;4.65;;;;;;;24.10;79.69;100178.59;6122548;23;20017;-91
2023/08/16 08:30:44;;;;;;;6.15;4.53;;;;;;;24.13;78.95;100188.19;6100255;23;20032;-91
2023/08/16 08:33:11;;;;;;;4.70;4.10;;;;;;;24.15;78.48;100183.38;6099390;23;20398;-90
2023/08/16 08:35:38;;;;;;;7.38;4.97;;;;;;;24.15;78.31;100178.78;6101188;23;20017;-90
2023/08/16 08:38:05;;;;;;;4.88;4.32;;;;;;;24.17;78.81;100176.69;6123958;23;20029;-91
2023/08/16 08:40:32;;;;;;;7.43;4.20;;;;;;;24.20;78.63;100175.41;6124985;23;20025;-90
2023/08/16 08:42:59;;;;;;;8.00;4.25;;;;;;;24.19;77.69;100166.41;6148903;23;20071;-90
2023/08/16 08:45:27;;;;;;;4.80;3.70;;;;;;;24.23;78.13;100177.69;6125454;23;20295;-91
2023/08/16 08:47:56;;;;;;;5.82;4.50;;;;;;;24.26;77.89;100180.78;6124502;23;20021;-90
2023/08/16 08:50:23;;;;;;;4.78;3.60;;;;;;;24.28;78.58;100177.88;6100624;23;20357;-91
2023/08/16 08:52:51;;;;;;;4.78;4.38;;;;;;;24.36;78.47;100185.75;6100953;23;20092;-91
2023/08/16 08:55:18;;;;;;;7.82;4.03;;;;;;;24.41;78.65;100180.50;6100467;23;20029;-90
2023/08/16 08:57:52;;;;;;;6.32;3.72;;;;;;;24.50;78.07;100174.84;6124659;23;20052;-90
2023/08/16 09:00:20;;;;;;;6.43;4.38;;;;;;;24.52;78.01;100178.16;6123855;23;20048;-90
2023/08/16 09:02:53;;;;;;;6.40;4.20;;;;;;;24.57;77.43;100181.88;6125027;23;20025;-90
2023/08/16 09:05:21;;;;;;;4.88;4.40;;;;;;;24.62;77.27;100182.06;6124977;23;20032;-90
2023/08/16 09:07:48;;;;;;;5.78;4.10;;;;;;;24.66;78.05;100183.28;6124642;23;20040;-90
2023/08/16 09:10:16;;;;;;;4.90;4.20;;;;;;;24.71;77.88;100179.09;6125417;23;20029;-90
2023/08/16 09:12:43;;;;;;;5.95;3.75;;;;;;;24.73;76.99;100179.69;6100799;23;20446;-91
2023/08/16 09:15:10;;;;;;;5.95;4.10;;;;;;;24.72;77.00;100181.59;6123269;23;20405;-90
2023/08/16 09:17:37;;;;;;;3.75;3.45;;;;;;;24.73;76.50;100174.25;6124452;23;20044;-91
2023/08/16 09:20:05;;;;;;;4.88;3.35;;;;;;;24.69;76.75;100165.72;6124253;23;20017;-90
2023/08/16 09:22:32;;;;;;;5.47;3.88;;;;;;;24.72;76.95;100167.19;6100258;23;20075;-89
2023/08/16 09:25:02;;;;;;;6.18;3.67;;;;;;;24.76;76.82;100163.81;6123625;23;20380;-90
2023/08/16 09:27:31;;;;;;;5.45;3.72;;;;;;;24.77;76.53;100162.75;6149509;23;20028;-91
2023/08/16 09:29:58;;;;;;;4.68;3.70;;;;;;;24.76;76.49;100160.25;6125010;23;20013;-90
2023/08/16 09:32:30;;;;;;;4.10;3.20;;;;;;;24.82;76.17;100162.09;6099812;23;20119;-90
2023/08/16 09:34:59;;;;;;;3.90;3.00;;;;;;;24.83;75.51;100161.88;6100859;23;20025;-90
2023/08/16 09:37:31;;;;;;;5.33;3.60;;;;;;;24.83;76.07;100151.00;6150121;23;20080;-90
2023/08/16 09:39:58;;;;;;;6.07;3.45;;;;;;;24.85;75.95;100153.47;6099661;23;20023;-90
2023/08/16 09:42:32;;;;;;;5.28;3.35;;;;;;;24.84;75.01;100158.09;6123732;23;20512;-91
2023/08/16 09:45:00;;;;;;;5.47;3.63;;;;;;;24.87;75.22;100145.94;6100995;23;20100;-89
2023/08/16 09:47:30;;;;;;;3.92;3.53;;;;;;;24.88;74.96;100151.19;6126595;23;20021;-89
2023/08/16 09:50:03;;;;;;;4.15;3.33;;;;;;;24.95;74.60;100153.00;6126401;23;20025;-90
2023/08/16 09:52:31;;;;;;;6.55;3.92;;;;;;;24.99;74.66;100140.63;6126711;23;20025;-89
2023/08/16 09:54:59;;;;;;;5.43;3.40;;;;;;;25.02;73.67;100143.72;6150921;23;20453;-91
2023/08/16 09:57:26;;;;;;;3.53;2.95;;;;;;;25.09;72.76;100141.78;6150220;23;20357;-90
2023/08/16 09:59:56;;;;;;;3.80;3.10;;;;;;;25.15;72.78;100139.22;6150601;23;20040;-88
2023/08/16 10:02:23;;;;;;;5.28;3.00;;;;;;;25.19;73.44;100140.44;6125631;23;20043;-89
2023/08/16 10:05:10;;;;;;;4.40;3.13;;;;;;;25.24;71.85;100140.63;6129421;23;20373;-89
2023/08/16 10:07:56;;;;;;;4.57;3.47;;;;;;;25.26;70.12;100133.06;6132262;23;20374;-89
2023/08/16 10:10:23;;;;;;;3.17;2.50;;;;;;;25.24;69.93;100127.88;6124531;23;20040;-89
2023/08/16 10:12:50;;;;;;;4.45;2.88;;;;;;;25.24;70.17;100117.00;6150266;23;20088;-90
2023/08/16 10:15:17;;;;;;;3.00;2.75;;;;;;;25.29;70.84;100128.03;6126622;23;20071;-89
2023/08/16 10:17:44;;;;;;;3.90;2.92;;;;;;;25.31;69.43;100128.63;6150505;23;20094;-90
2023/08/16 10:20:18;;;;;;;5.53;3.40;;;;;;;25.31;69.62;100127.78;6174355;23;20412;-90
2023/08/16 10:22:46;;;;;;;8.45;2.95;;;;;;;25.32;68.47;100114.00;6150478;23;20055;-89
2023/08/16 10:25:23;;;;;;;3.67;2.83;;;;;;;25.33;68.60;100114.81;6173841;23;20040;-89
2023/08/16 10:27:54;;;;;;;6.68;3.00;;;;;;;25.34;68.68;100117.31;6128847;23;20025;-89
2023/08/16 10:30:25;;;;;;;4.93;3.42;;;;;;;25.33;68.79;100112.91;6125561;23;20032;-90
2023/08/16 10:32:56;;;;;;;3.08;2.78;;;;;;;25.37;68.41;100118.75;6126072;23;20024;-89
2023/08/16 10:35:23;;;;;;;4.57;2.78;;;;;;;25.40;67.74;100107.41;6150097;23;20388;-90
2023/08/16 10:37:53;;;;;;;4.97;3.15;;;;;;;25.46;68.21;100108.41;6150843;23;20040;-91
2023/08/16 10:40:21;;;;;;;4.80;2.75;;;;;;;25.42;67.87;100104.47;6150847;23;20028;-90
2023/08/16 10:42:57;;;;;;;3.03;2.60;;;;;;;25.40;66.04;100112.84;6151048;23;20021;-90
2023/08/16 10:45:29;;;;;;;3.83;2.88;;;;;;;25.45;66.46;100099.41;6125394;23;20458;-90
2023/08/16 10:48:08;;;;;;;4.57;2.70;;;;;;;25.44;64.94;100115.94;6126618;23;20033;-90
2023/08/16 10:50:35;;;;;;;5.35;3.00;;;;;;;25.50;65.90;100109.63;6102283;23;20445;-90
2023/08/16 10:53:02;;;;;;;7.63;3.15;;;;;;;25.52;65.34;100096.63;6125252;23;20028;-90
2023/08/16 10:55:29;;;;;;;5.10;3.00;;;;;;;25.50;65.58;100105.00;6149947;23;20052;-90
2023/08/16 10:57:56;;;;;;;3.83;2.55;;;;;;;25.55;65.12;100098.88;6125912;23;20044;-90
2023/08/16 11:00:32;;;;;;;4.90;2.45;;;;;;;25.55;65.10;100096.16;6101128;23;20025;-90
2023/08/16 11:03:06;;;;;;;4.45;3.00;;;;;;;25.64;66.62;100096.69;6174099;23;20420;-90
2023/08/16 11:05:34;;;;;;;3.60;3.00;;;;;;;25.67;66.28;100091.63;6126905;23;20071;-90
2023/08/16 11:08:01;;;;;;;3.38;3.08;;;;;;;25.71;65.33;100087.38;6125023;23;20052;-90
2023/08/16 11:10:35;;;;;;;4.18;3.10;;;;;;;25.75;66.36;100083.16;6150263;23;20071;-90
2023/08/16 11:13:03;;;;;;;5.88;2.88;;;;;;;25.80;67.05;100084.31;6124738;23;20021;-90
2023/08/16 11:15:30;;;;;;;4.07;3.03;;;;;;;25.80;66.59;100070.72;6149528;23;20036;-89
2023/08/16 11:17:57;;;;;;;3.80;2.80;;;;;;;25.82;66.11;100074.06;6150138;23;20029;-90
2023/08/16 11:20:34;;;;;;;4.00;2.85;;;;;;;25.85;66.25;100077.19;6104508;23;20021;-90
2023/08/16 11:23:02;;;;;;;3.28;2.72;;;;;;;25.86;66.29;100070.69;6149330;23;20033;-89
2023/08/16 11:25:33;;;;;;;3.42;3.13;;;;;;;25.86;65.99;100072.56;6149993;23;20028;-89
2023/08/16 11:28:04;;;;;;;3.78;2.90;;;;;;;25.88;66.75;100074.00;6101172;23;20032;-90